Time;durP1;ratioP1;P1;durP2;ratioP2;P2;SDS_P1;SDS_P2;PMS_P1;PMS_P2;Temp;Humidity;BMP_temperature;BMP_pressure;BME280_temperature;BME280_humidity;BME280_pressure;Samples;Min_cycle;Max_cycle;Signal;HPM_P1;HPM_P2
2021/08/14 00:01:19;;;;;;;24.25;14.35;;;;;;;19.29;56.96;101995.69;1648800;87;21650;-77
2021/08/14 00:03:45;;;;;;;20.70;12.80;;;;;;;19.29;57.08;101993.89;1668513;86;21480;-79
2021/08/14 00:06:15;;;;;;;21.48;11.50;;;;;;;19.29;57.10;101989.10;1639697;87;21839;-77
2021/08/14 00:08:40;;;;;;;23.85;12.37;;;;;;;19.28;57.16;101992.21;1668133;84;20952;-78
2021/08/14 00:11:09;;;;;;;19.92;12.10;;;;;;;19.27;57.20;101993.16;1639847;87;21117;-77
2021/08/14 00:13:37;;;;;;;26.10;12.98;;;;;;;19.27;57.31;101985.77;1668543;86;21548;-77
2021/08/14 00:16:04;;;;;;;26.00;13.13;;;;;;;19.26;57.38;101992.83;1648936;87;21504;-77
2021/08/14 00:18:33;;;;;;;20.23;11.40;;;;;;;19.24;57.53;101997.36;1668802;86;20915;-77
2021/08/14 00:20:59;;;;;;;19.35;11.18;;;;;;;19.23;57.65;101999.66;1648787;86;21069;-78
2021/08/14 00:23:26;;;;;;;16.48;10.28;;;;;;;19.22;57.68;101995.34;1656170;86;21281;-77
2021/08/14 00:25:57;;;;;;;19.25;10.53;;;;;;;19.23;57.70;101994.87;1656041;86;21444;-79
2021/08/14 00:28:24;;;;;;;19.45;9.83;;;;;;;19.24;57.67;101996.55;1656335;86;20917;-77
2021/08/14 00:30:50;;;;;;;15.93;9.28;;;;;;;19.23;57.75;101998.82;1656148;86;21111;-77
2021/08/14 00:33:18;;;;;;;20.02;10.15;;;;;;;19.20;57.83;102000.38;1656255;86;21009;-76
2021/08/14 00:35:46;;;;;;;15.45;9.25;;;;;;;19.19;57.92;101996.91;1656343;86;20921;-77
2021/08/14 00:38:14;;;;;;;14.47;8.65;;;;;;;19.21;57.98;101995.48;1655986;86;21523;-77
2021/08/14 00:40:42;;;;;;;17.73;8.60;;;;;;;19.21;57.94;101998.12;1656174;86;21479;-77
2021/08/14 00:43:09;;;;;;;14.58;8.45;;;;;;;19.20;58.00;101992.02;1655964;86;22362;-77
2021/08/14 00:45:41;;;;;;;12.93;8.03;;;;;;;19.19;58.13;102000.02;1656154;86;21078;-79
2021/08/14 00:48:08;;;;;;;14.20;8.15;;;;;;;19.17;58.20;102001.95;1656239;86;21036;-77
2021/08/14 00:50:37;;;;;;;10.35;7.35;;;;;;;19.15;58.29;101998.11;1631258;86;21540;-76
2021/08/14 00:53:04;;;;;;;12.93;7.53;;;;;;;19.13;58.40;102002.67;1656072;86;20961;-77
2021/08/14 00:55:33;;;;;;;10.10;7.53;;;;;;;19.11;58.48;102001.97;1656474;86;21178;-76
2021/08/14 00:58:01;;;;;;;14.45;8.33;;;;;;;19.10;58.52;102004.23;1655920;86;20980;-77
2021/08/14 01:00:28;;;;;;;12.00;7.37;;;;;;;19.09;58.58;102006.50;1656206;86;20992;-77
2021/08/14 01:02:56;;;;;;;12.05;6.83;;;;;;;19.08;58.63;102005.33;1631635;86;21491;-79
2021/08/14 01:05:22;;;;;;;12.82;7.37;;;;;;;19.06;58.74;102003.28;1656329;86;20917;-76
2021/08/14 01:07:50;;;;;;;15.10;8.05;;;;;;;19.03;58.81;101997.31;1656058;86;21539;-77
2021/08/14 01:10:18;;;;;;;14.40;8.00;;;;;;;18.99;58.89;101996.36;1656148;86;20952;-76
2021/08/14 01:12:54;;;;;;;11.75;8.18;;;;;;;18.95;58.99;101998.90;1656077;86;21007;-79
2021/08/14 01:15:21;;;;;;;13.88;8.18;;;;;;;18.91;59.10;102000.94;1657440;86;21516;-78
2021/08/14 01:17:50;;;;;;;14.45;8.78;;;;;;;18.89;59.22;102002.83;1657247;86;20968;-78
2021/08/14 01:20:18;;;;;;;13.78;8.55;;;;;;;18.87;59.29;102003.45;1656929;86;21736;-77
2021/08/14 01:22:46;;;;;;;16.10;9.78;;;;;;;18.84;59.35;102005.00;1654424;84;21011;-78
2021/08/14 01:25:14;;;;;;;20.45;9.45;;;;;;;18.82;59.47;102003.46;1654934;86;20964;-78
2021/08/14 01:27:41;;;;;;;17.07;9.65;;;;;;;18.80;59.57;102000.94;1628717;86;21077;-78
2021/08/14 01:30:13;;;;;;;18.35;10.35;;;;;;;18.78;59.70;101995.45;1654579;86;21030;-79
2021/08/14 01:32:40;;;;;;;22.15;9.95;;;;;;;18.75;59.78;101995.22;1653292;85;21161;-79
2021/08/14 01:35:07;;;;;;;21.70;11.57;;;;;;;18.74;59.89;101996.17;1653334;86;21068;-79
2021/08/14 01:37:34;;;;;;;17.07;10.85;;;;;;;18.75;59.98;101994.38;1656507;86;21038;-79
2021/08/14 01:40:01;;;;;;;19.62;10.78;;;;;;;18.73;60.13;101991.85;1655477;86;21473;-79
2021/08/14 01:42:27;;;;;;;22.73;10.60;;;;;;;18.73;60.23;101993.67;1653376;86;21103;-80
2021/08/14 01:44:54;;;;;;;23.15;12.23;;;;;;;18.73;60.31;102002.87;1653220;86;21177;-78
2021/08/14 01:47:21;;;;;;;20.65;10.88;;;;;;;18.71;60.46;101998.20;1653069;86;20882;-77
2021/08/14 01:49:48;;;;;;;25.82;11.38;;;;;;;18.69;60.54;101995.70;1653111;86;20933;-77
2021/08/14 01:52:17;;;;;;;16.52;10.95;;;;;;;18.68;60.68;101990.08;1653454;86;20996;-78
2021/08/14 01:54:47;;;;;;;16.30;9.85;;;;;;;18.66;60.81;101988.06;1653396;86;20910;-79
2021/08/14 01:57:13;;;;;;;18.10;9.63;;;;;;;18.67;60.90;101991.50;1653205;86;21168;-78
2021/08/14 01:59:40;;;;;;;15.25;9.05;;;;;;;18.64;61.01;101986.02;1653418;86;20957;-78
2021/08/14 02:02:08;;;;;;;15.70;8.73;;;;;;;18.65;61.08;101991.64;1653289;86;20989;-78
2021/08/14 02:04:35;;;;;;;14.13;9.13;;;;;;;18.63;61.16;101988.30;1609597;86;21499;-78
2021/08/14 02:07:04;;;;;;;16.35;8.35;;;;;;;18.62;61.20;101997.14;1653286;86;21634;-77
2021/08/14 02:09:34;;;;;;;15.48;9.13;;;;;;;18.60;61.33;101996.91;1653175;86;21464;-79
2021/08/14 02:12:00;;;;;;;15.35;9.10;;;;;;;18.57;61.44;101992.70;1653438;86;21017;-79
2021/08/14 02:14:28;;;;;;;15.65;9.83;;;;;;;18.55;61.50;101992.47;1653230;86;21012;-79
2021/08/14 02:16:57;;;;;;;15.98;9.83;;;;;;;18.54;61.62;101992.95;1653152;85;21452;-80
2021/08/14 02:19:25;;;;;;;19.50;10.30;;;;;;;18.54;61.69;101995.58;1653703;86;21487;-81
2021/08/14 02:21:52;;;;;;;19.17;10.28;;;;;;;18.53;61.82;101987.83;1653885;86;21209;-83
2021/08/14 02:24:20;;;;;;;24.20;10.50;;;;;;;18.53;61.84;101991.77;1653531;86;20965;-82
2021/08/14 02:26:48;;;;;;;18.55;10.23;;;;;;;18.53;61.83;101995.71;1653580;86;21055;-81
2021/08/14 02:29:16;;;;;;;18.67;10.13;;;;;;;18.51;61.86;101991.06;1653246;86;21456;-81
2021/08/14 02:31:43;;;;;;;18.35;10.20;;;;;;;18.48;61.93;101983.72;1653603;86;21071;-82
2021/08/14 02:34:10;;;;;;;17.92;9.18;;;;;;;18.47;61.98;101986.48;1653434;86;21142;-82
2021/08/14 02:36:38;;;;;;;20.02;9.65;;;;;;;18.46;62.09;101987.44;1653284;86;21055;-80
2021/08/14 02:39:05;;;;;;;26.30;9.48;;;;;;;18.45;62.20;101991.84;1653232;86;21067;-81
2021/08/14 02:41:33;;;;;;;21.40;10.28;;;;;;;18.44;62.22;101987.53;1653058;86;20918;-80
2021/08/14 02:43:59;;;;;;;22.60;10.38;;;;;;;18.44;62.26;101988.05;1653540;86;21045;-82
2021/08/14 02:46:26;;;;;;;23.62;10.10;;;;;;;18.43;62.33;101987.20;1653278;85;21170;-80
2021/08/14 02:48:53;;;;;;;22.05;10.10;;;;;;;18.41;62.38;101990.41;1653169;86;21495;-82
2021/08/14 02:51:20;;;;;;;24.07;10.93;;;;;;;18.40;62.55;101995.33;1653207;86;20960;-79
2021/08/14 02:53:47;;;;;;;21.65;9.65;;;;;;;18.39;62.58;101991.02;1653098;86;21019;-79
2021/08/14 02:56:16;;;;;;;15.10;8.05;;;;;;;18.39;62.62;101991.02;1653551;86;21019;-79
2021/08/14 02:58:43;;;;;;;15.78;8.15;;;;;;;18.38;62.67;101982.77;1653313;86;22025;-78
2021/08/14 03:01:10;;;;;;;20.05;8.50;;;;;;;18.36;62.68;101983.84;1653379;86;20977;-78
2021/08/14 03:03:38;;;;;;;14.80;7.37;;;;;;;18.33;62.77;101980.14;1653297;86;21059;-77
2021/08/14 03:06:25;;;;;;;19.35;8.65;;;;;;;18.29;62.90;101990.05;1653198;86;21176;-76
2021/08/14 03:08:53;;;;;;;17.65;8.55;;;;;;;18.26;63.02;101984.19;1653472;86;21468;-78
2021/08/14 03:11:24;;;;;;;13.48;8.35;;;;;;;18.22;63.12;101980.15;1653163;86;21024;-81
2021/08/14 03:13:52;;;;;;;14.60;8.83;;;;;;;18.17;63.27;101980.97;1653224;86;21432;-78
2021/08/14 03:16:20;;;;;;;16.73;9.38;;;;;;;18.13;63.42;101982.98;1653316;86;21559;-82
2021/08/14 03:18:49;;;;;;;29.82;12.53;;;;;;;18.10;63.54;101987.64;1653126;85;21502;-83
2021/08/14 03:21:17;;;;;;;18.65;10.10;;;;;;;18.07;63.64;101990.03;1653802;86;21056;-84
2021/08/14 03:23:45;;;;;;;25.95;10.70;;;;;;;18.07;64.03;101993.13;1653414;84;21171;-85
2021/08/14 03:26:11;;;;;;;25.40;9.75;;;;;;;18.06;64.27;101989.66;1653177;86;20945;-80
2021/08/14 03:28:39;;;;;;;13.72;8.23;;;;;;;18.08;64.27;101989.55;1653561;86;20948;-79
2021/08/14 03:31:05;;;;;;;14.45;8.08;;;;;;;18.08;64.17;101989.08;1653235;86;21126;-78
2021/08/14 03:33:32;;;;;;;16.93;9.13;;;;;;;18.10;64.31;101991.10;1653234;86;21021;-80
2021/08/14 03:35:58;;;;;;;22.52;10.15;;;;;;;18.11;64.35;101986.22;1653206;86;21164;-79
2021/08/14 03:38:25;;;;;;;16.97;10.80;;;;;;;18.10;64.24;101988.95;1653079;86;21558;-79
2021/08/14 03:40:53;;;;;;;20.35;10.40;;;;;;;18.10;64.31;101992.89;1653202;86;20925;-78
2021/08/14 03:43:21;;;;;;;15.45;9.35;;;;;;;18.11;64.37;101994.58;1653350;86;21061;-79
2021/08/14 03:45:47;;;;;;;21.93;9.38;;;;;;;18.11;64.40;101991.47;1653166;86;21104;-78
2021/08/14 03:48:14;;;;;;;15.25;8.25;;;;;;;18.12;64.45;101995.78;1653300;86;21193;-79
2021/08/14 03:50:41;;;;;;;13.13;8.68;;;;;;;18.13;64.56;101996.13;1653135;85;21006;-78
2021/08/14 03:53:08;;;;;;;14.85;9.10;;;;;;;18.16;64.60;101993.27;1653252;86;20977;-78
2021/08/14 03:55:37;;;;;;;15.50;8.85;;;;;;;18.20;64.65;101999.96;1653393;86;21036;-79
2021/08/14 03:58:03;;;;;;;16.07;9.18;;;;;;;18.22;64.80;101999.86;1653400;86;21607;-80
2021/08/14 04:00:30;;;;;;;24.12;9.85;;;;;;;18.25;64.83;101998.31;1653389;86;21185;-80
2021/08/14 04:02:58;;;;;;;16.12;9.88;;;;;;;18.28;64.83;102002.02;1652921;85;21012;-81
2021/08/14 04:05:25;;;;;;;20.62;9.90;;;;;;;18.30;64.79;101996.98;1653039;85;21146;-79
2021/08/14 04:07:52;;;;;;;16.67;9.45;;;;;;;18.36;64.87;102000.92;1653185;86;21002;-78
2021/08/14 04:10:19;;;;;;;15.08;8.75;;;;;;;18.37;65.01;101997.35;1653365;86;20957;-76
2021/08/14 04:12:47;;;;;;;14.47;8.65;;;;;;;18.40;65.04;101998.43;1653688;86;21036;-77
2021/08/14 04:15:14;;;;;;;21.48;8.53;;;;;;;18.44;65.20;101999.36;1653477;85;21488;-78
2021/08/14 04:17:43;;;;;;;15.53;8.35;;;;;;;18.48;65.24;101994.70;1653502;85;21482;-79
2021/08/14 04:20:12;;;;;;;21.82;8.25;;;;;;;18.53;65.23;101995.23;1653628;86;20980;-79
2021/08/14 04:22:38;;;;;;;12.73;8.03;;;;;;;18.58;65.28;101994.38;1654955;84;21047;-82
2021/08/14 04:25:08;;;;;;;17.07;7.60;;;;;;;18.65;65.21;101989.48;1669031;86;21829;-82
2021/08/14 04:27:34;;;;;;;15.72;7.85;;;;;;;18.70;65.19;101993.92;1668891;86;21491;-82
2021/08/14 04:30:02;;;;;;;15.03;7.53;;;;;;;18.77;65.12;101995.92;1668856;86;21182;-82
2021/08/14 04:32:33;;;;;;;18.20;7.28;;;;;;;18.83;64.99;101990.17;1668846;86;21044;-83
2021/08/14 04:35:10;;;;;;;14.38;7.75;;;;;;;18.89;64.97;101992.31;1668719;86;20936;-84
2021/08/14 04:37:38;;;;;;;14.25;8.08;;;;;;;18.95;65.24;101993.13;1668704;86;21182;-84
2021/08/14 04:40:11;;;;;;;21.95;8.30;;;;;;;19.02;65.42;102001.38;1668760;86;21023;-82
2021/08/14 04:42:38;;;;;;;16.32;8.53;;;;;;;19.05;65.34;101996.37;1668925;86;20960;-83
2021/08/14 04:45:08;;;;;;;14.95;7.33;;;;;;;19.11;65.30;101998.02;1668790;86;21052;-84
2021/08/14 04:47:35;;;;;;;19.62;8.10;;;;;;;19.19;65.26;101992.96;1668962;86;21459;-83
2021/08/14 04:50:08;;;;;;;15.32;7.70;;;;;;;19.25;65.09;101996.88;1668980;86;21152;-82
2021/08/14 04:52:34;;;;;;;;;;;;;;;19.32;65.03;101999.37;1671203;86;20873;-83
2021/08/14 04:55:03;;;;;;;14.23;7.80;;;;;;;19.37;64.81;102002.46;1668673;86;20511;-82
2021/08/14 04:57:31;;;;;;;13.45;7.65;;;;;;;19.41;64.75;102002.13;1668897;86;21074;-82
2021/08/14 04:59:57;;;;;;;16.45;8.35;;;;;;;19.49;64.69;102004.98;1669124;86;21043;-84
2021/08/14 05:02:26;;;;;;;12.45;6.87;;;;;;;19.57;64.60;101999.55;1669436;86;21455;-83
2021/08/14 05:04:53;;;;;;;13.00;7.10;;;;;;;19.64;64.29;102001.55;1669366;86;20882;-83
2021/08/14 05:07:23;;;;;;;13.98;7.33;;;;;;;19.71;64.19;101995.30;1670182;86;21013;-84
2021/08/14 05:09:53;;;;;;;12.53;7.37;;;;;;;19.79;64.06;101996.80;1669911;86;20967;-84
2021/08/14 05:12:19;;;;;;;11.20;7.05;;;;;;;19.84;63.90;101994.16;1650575;87;21009;-84
2021/08/14 05:14:46;;;;;;;12.82;6.72;;;;;;;19.92;63.58;101996.13;1670065;86;21458;-84
2021/08/14 05:17:14;;;;;;;16.32;6.70;;;;;;;19.98;63.13;101995.13;1649705;87;21473;-82
2021/08/14 05:19:45;;;;;;;12.70;6.75;;;;;;;20.07;62.81;101985.59;1670717;86;20982;-83
2021/08/14 05:22:14;;;;;;;15.15;7.60;;;;;;;20.15;62.66;101988.91;1650917;87;20902;-83
2021/08/14 05:24:44;;;;;;;11.93;6.70;;;;;;;20.23;62.57;101992.55;1657331;86;21007;-80
2021/08/14 05:27:10;;;;;;;11.68;6.22;;;;;;;20.33;61.92;101991.31;1654973;86;21164;-83
2021/08/14 05:29:40;;;;;;;9.68;6.47;;;;;;;20.43;61.43;101994.83;1654288;86;21096;-86
2021/08/14 05:32:09;;;;;;;14.95;6.17;;;;;;;20.53;61.06;101988.64;1655454;86;21012;-84
2021/08/14 05:34:37;;;;;;;13.95;6.45;;;;;;;20.64;61.02;101992.15;1655027;86;21080;-83
2021/08/14 05:37:04;;;;;;;13.72;6.08;;;;;;;20.72;61.01;101993.14;1653445;86;20921;-85
2021/08/14 05:39:31;;;;;;;13.15;6.80;;;;;;;20.83;60.49;101994.36;1655724;86;21541;-84
2021/08/14 05:42:25;;;;;;;11.03;6.87;;;;;;;20.92;60.08;101988.27;1655964;86;20996;-84
2021/08/14 05:45:40;;;;;;;11.50;5.70;;;;;;;21.01;59.94;101988.77;1709140;83;20987;-79
2021/08/14 05:48:10;;;;;;;11.50;6.47;;;;;;;21.21;59.14;101987.02;1708133;84;21081;-79
2021/08/14 05:50:36;;;;;;;9.63;6.08;;;;;;;21.34;58.37;101996.83;1708832;84;21010;-81
2021/08/14 05:53:04;;;;;;;17.45;6.75;;;;;;;21.48;57.86;101994.23;1708826;84;21821;-83
2021/08/14 05:55:40;;;;;;;11.20;5.87;;;;;;;21.58;57.90;101990.63;1710567;84;20931;-85
2021/08/14 05:58:10;;;;;;;9.73;5.55;;;;;;;21.68;57.91;101989.30;1709631;83;21062;-86
2021/08/14 06:00:37;;;;;;;11.75;5.78;;;;;;;21.78;57.49;101986.16;1710061;84;20911;-83
2021/08/14 06:03:25;;;;;;;16.70;5.30;;;;;;;21.88;57.17;101984.82;1709712;84;21068;-89
2021/08/14 06:05:53;;;;;;;11.60;4.72;;;;;;;21.96;56.92;101981.00;1709229;84;21473;-85
2021/08/14 06:08:20;;;;;;;11.15;5.58;;;;;;;22.09;56.22;101983.68;1709004;84;21561;-83
2021/08/14 06:10:46;;;;;;;8.93;5.20;;;;;;;22.20;55.72;101976.07;1708282;84;20998;-84
2021/08/14 06:13:15;;;;;;;8.75;4.83;;;;;;;22.31;55.31;101971.91;1708145;84;20990;-83
2021/08/14 06:15:42;;;;;;;10.25;5.25;;;;;;;22.42;54.90;101971.73;1708450;84;20911;-83
2021/08/14 06:18:12;;;;;;;12.80;4.70;;;;;;;22.52;54.80;101965.91;1684274;84;21482;-76
2021/08/14 06:20:40;;;;;;;8.73;4.58;;;;;;;22.66;54.30;101973.38;1708117;84;20895;-80
2021/08/14 06:23:06;;;;;;;10.98;4.90;;;;;;;22.78;53.05;101963.44;1708149;84;21041;-79
2021/08/14 06:25:33;;;;;;;9.03;5.03;;;;;;;22.87;52.64;101967.83;1708328;84;21019;-82
2021/08/14 06:28:00;;;;;;;9.08;4.60;;;;;;;23.00;52.14;101968.30;1707929;84;20871;-81
2021/08/14 06:30:27;;;;;;;8.70;4.83;;;;;;;23.12;51.69;101970.23;1708003;84;21122;-80
2021/08/14 06:32:54;;;;;;;8.08;4.03;;;;;;;23.24;51.32;101966.84;1708032;84;21523;-86
2021/08/14 06:35:21;;;;;;;9.85;4.80;;;;;;;23.35;50.94;101975.42;1719260;83;21570;-81
2021/08/14 06:37:50;;;;;;;7.50;4.72;;;;;;;23.47;50.61;101967.59;1733352;82;20968;-79
2021/08/14 06:40:16;;;;;;;10.32;4.58;;;;;;;23.56;50.65;101971.97;1733443;82;20943;-75
2021/08/14 06:42:43;;;;;;;5.53;4.10;;;;;;;23.63;50.74;101973.03;1733130;82;21074;-80
2021/08/14 06:45:10;;;;;;;5.53;3.87;;;;;;;23.74;49.58;101972.45;1726346;82;21042;-84
2021/08/14 06:47:38;;;;;;;9.85;3.72;;;;;;;23.81;49.38;101974.30;1723518;83;20943;-85
2021/08/14 06:50:06;;;;;;;9.30;4.45;;;;;;;23.88;49.44;101963.42;1723656;83;21082;-82
2021/08/14 06:52:35;;;;;;;12.28;5.05;;;;;;;23.95;49.17;101963.62;1723704;83;20948;-80
2021/08/14 06:55:03;;;;;;;8.60;4.33;;;;;;;24.03;49.36;101969.80;1724124;83;21438;-81
2021/08/14 06:57:30;;;;;;;6.20;4.08;;;;;;;24.12;48.96;101970.73;1724158;83;20999;-79
2021/08/14 06:59:58;;;;;;;6.78;4.28;;;;;;;24.20;48.08;101976.06;1725383;83;20936;-83
2021/08/14 07:02:24;;;;;;;8.48;4.55;;;;;;;24.29;47.77;101977.77;1724215;83;21538;-85
2021/08/14 07:04:52;;;;;;;9.23;3.95;;;;;;;24.36;47.43;101980.62;1723265;83;36119;-80
2021/08/14 07:07:18;;;;;;;7.12;3.47;;;;;;;24.44;47.03;101974.04;1723657;83;21116;-82
2021/08/14 07:09:45;;;;;;;10.18;3.60;;;;;;;24.49;46.68;101978.36;1723675;83;21034;-78
2021/08/14 07:12:11;;;;;;;7.33;3.67;;;;;;;24.54;46.51;101975.55;1723493;83;20959;-78
2021/08/14 07:14:40;;;;;;;8.50;4.42;;;;;;;24.63;46.20;101975.91;1684298;84;21008;-86
2021/08/14 07:17:07;;;;;;;6.47;3.70;;;;;;;24.73;46.12;101987.72;1684017;85;21007;-84
2021/08/14 07:19:34;;;;;;;6.37;3.62;;;;;;;24.81;45.99;101987.77;1684194;84;21970;-76
2021/08/14 07:22:02;;;;;;;3.60;2.95;;;;;;;24.90;45.34;101989.48;1684559;85;20937;-81
2021/08/14 07:24:30;;;;;;;6.90;3.37;;;;;;;24.98;44.81;101981.55;1684473;85;20993;-84
2021/08/14 07:26:57;;;;;;;9.58;3.65;;;;;;;25.05;44.22;101989.66;1685022;85;20921;-85
2021/08/14 07:29:25;;;;;;;6.85;3.45;;;;;;;25.12;44.04;101987.53;1684619;85;20877;-79
2021/08/14 07:31:52;;;;;;;5.35;3.90;;;;;;;25.17;44.15;101982.58;1684339;84;21144;-80
2021/08/14 07:34:19;;;;;;;8.65;3.83;;;;;;;25.21;44.02;101983.88;1684350;85;20976;-85
2021/08/14 07:36:45;;;;;;;13.60;4.70;;;;;;;25.27;44.38;101986.41;1684157;85;20972;-83
2021/08/14 07:39:12;;;;;;;7.15;4.15;;;;;;;25.38;44.55;101985.23;1684273;85;20932;-80
2021/08/14 07:41:38;;;;;;;7.70;3.60;;;;;;;25.52;44.66;101991.26;1684371;85;21052;-82
2021/08/14 07:44:06;;;;;;;6.08;3.72;;;;;;;25.65;43.56;101990.26;1686197;84;21067;-78
2021/08/14 07:46:33;;;;;;;7.83;3.27;;;;;;;25.71;42.61;101989.09;1723785;83;20983;-82
2021/08/14 07:49:00;;;;;;;4.20;3.10;;;;;;;25.79;42.19;101983.75;1706125;84;21462;-79
2021/08/14 07:51:27;;;;;;;7.33;3.45;;;;;;;25.92;41.84;101985.89;1723827;83;21010;-85
2021/08/14 07:53:53;;;;;;;7.90;3.25;;;;;;;26.07;41.40;101985.52;1706273;84;20866;-82
2021/08/14 07:56:19;;;;;;;10.32;3.45;;;;;;;26.25;41.35;101981.36;1723774;83;21114;-80
2021/08/14 07:58:46;;;;;;;7.00;3.15;;;;;;;26.37;40.05;101979.14;1706199;84;21016;-78
2021/08/14 08:01:12;;;;;;;7.58;3.30;;;;;;;26.43;39.02;101975.29;1723907;83;21000;-81
2021/08/14 08:03:39;;;;;;;4.75;3.20;;;;;;;26.45;39.11;101975.13;1706544;84;20917;-81
2021/08/14 08:06:05;;;;;;;4.33;3.12;;;;;;;26.48;39.08;101980.11;1723857;83;21126;-82
2021/08/14 08:08:31;;;;;;;4.20;3.22;;;;;;;26.53;39.26;101975.91;1706314;84;21106;-77
2021/08/14 08:10:58;;;;;;;4.10;3.27;;;;;;;26.60;38.63;101972.06;1724032;83;21121;-82
2021/08/14 08:13:25;;;;;;;7.20;3.80;;;;;;;26.65;38.10;101968.36;1706217;84;20972;-80
2021/08/14 08:15:52;;;;;;;5.50;3.35;;;;;;;26.72;38.10;101965.33;1724226;83;21474;-83
2021/08/14 08:18:19;;;;;;;5.08;3.47;;;;;;;26.80;38.37;101961.30;1706527;84;20957;-84
2021/08/14 08:20:48;;;;;;;4.70;3.08;;;;;;;26.86;38.32;101968.63;1723839;83;21220;-86
2021/08/14 08:23:16;;;;;;;3.87;3.33;;;;;;;26.91;37.93;101968.91;1706257;84;20992;-79
2021/08/14 08:25:43;;;;;;;6.92;3.30;;;;;;;26.93;38.18;101968.75;1724006;83;20939;-81
2021/08/14 08:28:10;;;;;;;5.00;3.10;;;;;;;26.97;38.27;101960.70;1706731;84;20964;-79
2021/08/14 08:30:36;;;;;;;6.67;3.40;;;;;;;27.00;37.80;101959.86;1723976;83;21003;-82
2021/08/14 08:33:04;;;;;;;6.05;3.55;;;;;;;27.01;37.76;101960.69;1706226;84;21143;-77
2021/08/14 08:35:31;;;;;;;5.20;3.30;;;;;;;26.98;37.77;101961.05;1723889;83;21478;-78
2021/08/14 08:37:57;;;;;;;5.70;3.47;;;;;;;27.03;38.14;101961.33;1706386;84;20975;-80
2021/08/14 08:40:24;;;;;;;6.53;3.02;;;;;;;27.13;37.71;101960.09;1724000;83;20864;-83
2021/08/14 08:42:51;;;;;;;3.52;2.77;;;;;;;27.24;37.34;101957.03;1706054;84;20909;-76
2021/08/14 08:45:19;;;;;;;3.60;2.72;;;;;;;27.32;36.08;101951.62;1723577;83;22001;-81
2021/08/14 08:47:48;;;;;;;7.33;3.20;;;;;;;27.38;35.94;101955.39;1723621;83;20948;-80
2021/08/14 08:50:15;;;;;;;11.30;3.55;;;;;;;27.45;35.76;101954.20;1723823;83;21030;-76
2021/08/14 08:52:42;;;;;;;5.90;3.60;;;;;;;27.47;35.51;101958.87;1723715;83;21471;-82
2021/08/14 08:55:12;;;;;;;4.45;3.72;;;;;;;27.48;36.27;101953.34;1706145;84;21012;-84
2021/08/14 08:57:38;;;;;;;4.05;3.47;;;;;;;27.56;36.19;101956.45;1723325;83;21150;-81
2021/08/14 09:00:06;;;;;;;5.95;3.30;;;;;;;27.60;35.91;101954.56;1705884;84;21587;-83
2021/08/14 09:02:34;;;;;;;4.70;3.08;;;;;;;27.51;35.13;101955.65;1723660;83;21063;-80
2021/08/14 09:05:14;;;;;;;7.12;2.92;;;;;;;27.35;35.65;101950.42;1705983;84;20960;-79
2021/08/14 09:07:49;;;;;;;6.00;3.65;;;;;;;27.24;36.10;101949.03;1723747;83;20967;-80
2021/08/14 09:10:22;;;;;;;9.15;3.35;;;;;;;27.13;35.85;101945.44;1706137;84;21165;-79
2021/08/14 09:12:49;;;;;;;;;;;;;;;27.14;36.58;101947.61;1707798;82;20978;-78
2021/08/14 09:15:31;;;;;;;7.80;3.87;;;;;;;27.29;36.11;101949.81;1676109;85;20450;-82
2021/08/14 09:18:01;;;;;;;6.40;4.28;;;;;;;27.38;35.50;101945.27;1723806;83;21605;-78
2021/08/14 09:20:28;;;;;;;9.63;4.83;;;;;;;27.38;35.21;101942.06;1706203;84;21732;-80
2021/08/14 09:23:05;;;;;;;6.72;4.90;;;;;;;27.42;35.57;101930.04;1723854;83;21129;-76
2021/08/14 09:25:54;;;;;;;8.48;5.33;;;;;;;27.56;36.12;101927.12;1705979;84;21000;-81
2021/08/14 09:28:33;;;;;;;6.72;4.75;;;;;;;27.81;35.83;101926.69;1722654;83;21501;-75
2021/08/14 09:31:05;;;;;;;12.40;4.58;;;;;;;28.10;34.91;101931.73;1706080;84;20980;-77
2021/08/14 09:33:37;;;;;;;8.95;4.28;;;;;;;28.24;34.75;101922.36;1723862;83;20967;-86
2021/08/14 09:36:08;;;;;;;9.30;3.80;;;;;;;28.26;34.44;101923.02;1706259;84;21538;-75
2021/08/14 09:38:47;;;;;;;5.42;3.27;;;;;;;28.31;34.54;101921.11;1723715;83;21051;-77
2021/08/14 09:41:20;;;;;;;12.45;5.15;;;;;;;28.35;33.69;101929.08;1706219;84;20964;-78
2021/08/14 09:43:49;;;;;;;7.85;5.05;;;;;;;28.32;33.34;101922.78;1723771;83;21003;-76
2021/08/14 09:46:17;;;;;;;10.70;4.65;;;;;;;28.36;33.56;101924.90;1702006;84;21009;-76
2021/08/14 09:48:56;;;;;;;4.60;3.60;;;;;;;28.51;33.55;101922.19;1720370;83;21120;-77
2021/08/14 09:51:30;;;;;;;5.42;3.27;;;;;;;28.53;33.67;101923.31;1720411;83;21033;-81
2021/08/14 09:54:00;;;;;;;10.70;4.12;;;;;;;28.45;34.15;101921.61;1733502;82;20935;-78
2021/08/14 09:56:27;;;;;;;6.67;4.10;;;;;;;28.38;34.16;101918.86;1733305;82;21007;-78
2021/08/14 09:58:55;;;;;;;8.53;3.87;;;;;;;28.45;34.12;101916.77;1733277;82;21100;-80
2021/08/14 10:01:22;;;;;;;4.87;3.50;;;;;;;29.51;33.38;101924.33;1700460;84;21151;-79
2021/08/14 10:03:48;;;;;;;9.83;3.65;;;;;;;31.03;30.75;101912.45;1720312;83;20951;-78
2021/08/14 10:06:16;;;;;;;3.77;3.22;;;;;;;32.37;29.37;101905.93;1720476;83;20920;-76
2021/08/14 10:08:44;;;;;;;5.67;3.62;;;;;;;33.80;26.62;101902.36;1733512;82;20919;-76
2021/08/14 10:11:13;;;;;;;5.62;3.40;;;;;;;35.07;24.84;101905.30;1710467;82;21557;-78
2021/08/14 10:13:42;;;;;;;7.42;3.58;;;;;;;35.95;22.71;101889.80;1700541;84;21039;-77
2021/08/14 10:16:10;;;;;;;7.03;4.22;;;;;;;36.51;22.90;101894.94;1720218;83;21074;-81
2021/08/14 10:18:40;;;;;;;7.20;3.72;;;;;;;37.29;21.60;101892.23;1733171;82;20986;-82
2021/08/14 10:21:11;;;;;;;4.12;3.17;;;;;;;37.80;20.51;101887.52;1733638;82;21049;-72
2021/08/14 10:23:40;;;;;;;4.50;3.35;;;;;;;37.59;20.00;101877.77;1733567;82;27249;-78
2021/08/14 10:26:14;;;;;;;3.70;3.15;;;;;;;36.97;20.63;101873.57;1733119;82;21170;-81
2021/08/14 10:28:45;;;;;;;5.85;3.40;;;;;;;36.90;20.93;101872.38;1733179;82;20899;-76
2021/08/14 10:31:34;;;;;;;6.12;4.08;;;;;;;36.80;20.84;101878.15;1733368;82;20911;-77
2021/08/14 10:34:21;;;;;;;7.10;3.98;;;;;;;36.72;21.29;101869.10;1733237;82;20967;-75
2021/08/14 10:36:49;;;;;;;3.80;3.10;;;;;;;36.76;21.20;101869.70;1733383;82;21062;-77
2021/08/14 10:39:25;;;;;;;4.10;3.12;;;;;;;36.84;21.14;101863.08;1733275;82;21119;-79
2021/08/14 10:41:56;;;;;;;3.85;3.33;;;;;;;36.29;21.45;101852.91;1733246;81;20900;-78
2021/08/14 10:44:46;;;;;;;7.17;3.42;;;;;;;35.80;21.15;101848.98;1700511;82;21438;-76
2021/08/14 10:47:37;;;;;;;4.62;3.50;;;;;;;35.60;22.01;101850.42;1720180;83;22345;-76
2021/08/14 10:50:04;;;;;;;6.17;4.45;;;;;;;35.45;21.67;101845.50;1700405;84;20981;-82
2021/08/14 10:52:36;;;;;;;6.30;4.40;;;;;;;35.05;22.09;101850.75;1720571;83;21186;-83
2021/08/14 10:55:11;;;;;;;5.47;4.10;;;;;;;34.64;22.94;101846.25;1720323;83;20939;-77
2021/08/14 10:57:40;;;;;;;7.50;4.30;;;;;;;34.40;23.09;101845.33;1720318;83;20943;-78
2021/08/14 11:00:17;;;;;;;5.60;4.47;;;;;;;34.42;22.47;101840.55;1733271;82;21054;-76
2021/08/14 11:03:05;;;;;;;6.05;4.45;;;;;;;34.51;22.55;101833.77;1712235;82;21492;-76
2021/08/14 11:05:32;;;;;;;9.10;4.35;;;;;;;34.66;22.94;101837.39;1700449;84;21172;-78
2021/08/14 11:08:00;;;;;;;4.67;4.00;;;;;;;34.29;23.42;101839.91;1720310;82;20951;-80
2021/08/14 11:10:36;;;;;;;5.22;4.03;;;;;;;33.70;24.10;101847.37;1720518;83;22394;-81
2021/08/14 11:13:25;;;;;;;6.62;4.62;;;;;;;33.08;24.28;101843.01;1720309;83;20908;-85
2021/08/14 11:15:53;;;;;;;8.13;4.58;;;;;;;32.64;24.89;101837.27;1680923;84;20957;-75
2021/08/14 11:18:52;;;;;;;5.87;5.10;;;;;;;32.34;24.99;101839.19;1720251;82;20951;-78
2021/08/14 11:21:41;;;;;;;13.10;4.80;;;;;;;32.31;25.70;101833.42;1719962;83;20948;-76
2021/08/14 11:24:08;;;;;;;6.03;4.90;;;;;;;32.36;26.07;101829.04;1720241;82;21047;-75
2021/08/14 11:26:37;;;;;;;7.20;5.33;;;;;;;32.37;25.80;101830.70;1733109;82;21339;-78
2021/08/14 11:29:06;;;;;;;7.67;5.70;;;;;;;32.26;25.26;101826.55;1733221;82;20856;-74